sensor_id;sensor_type;location;lat;lon;timestamp;P1;durP1;ratioP1;P2;durP2;ratioP2
14203;SDS011;7185;51.854;6.622;2023-02-18T00:01:09;47.42;;;23.45;;
14203;SDS011;7185;51.854;6.622;2023-02-18T00:03:42;53.60;;;24.23;;
14203;SDS011;7185;51.854;6.622;2023-02-18T00:06:14;53.55;;;23.23;;
14203;SDS011;7185;51.854;6.622;2023-02-18T00:08:49;53.00;;;23.67;;
14203;SDS011;7185;51.854;6.622;2023-02-18T00:11:21;52.40;;;23.15;;
14203;SDS011;7185;51.854;6.622;2023-02-18T00:13:55;54.75;;;22.70;;
14203;SDS011;7185;51.854;6.622;2023-02-18T00:16:29;53.90;;;21.92;;
14203;SDS011;7185;51.854;6.622;2023-02-18T00:19:06;55.45;;;24.00;;
14203;SDS011;7185;51.854;6.622;2023-02-18T00:21:40;61.03;;;23.75;;
14203;SDS011;7185;51.854;6.622;2023-02-18T00:24:14;62.75;;;24.42;;
14203;SDS011;7185;51.854;6.622;2023-02-18T00:26:48;60.15;;;24.95;;
14203;SDS011;7185;51.854;6.622;2023-02-18T00:29:21;55.47;;;24.38;;
14203;SDS011;7185;51.854;6.622;2023-02-18T00:31:52;55.92;;;24.45;;
14203;SDS011;7185;51.854;6.622;2023-02-18T00:34:24;62.90;;;24.05;;
14203;SDS011;7185;51.854;6.622;2023-02-18T00:36:56;57.83;;;23.52;;
14203;SDS011;7185;51.854;6.622;2023-02-18T00:39:30;54.72;;;23.98;;
14203;SDS011;7185;51.854;6.622;2023-02-18T00:42:01;61.60;;;24.90;;
14203;SDS011;7185;51.854;6.622;2023-02-18T00:44:33;57.13;;;24.35;;
14203;SDS011;7185;51.854;6.622;2023-02-18T00:47:04;60.33;;;24.08;;
14203;SDS011;7185;51.854;6.622;2023-02-18T00:49:36;58.25;;;23.25;;
14203;SDS011;7185;51.854;6.622;2023-02-18T00:52:08;63.35;;;24.35;;
14203;SDS011;7185;51.854;6.622;2023-02-18T00:54:41;62.63;;;24.42;;
14203;SDS011;7185;51.854;6.622;2023-02-18T00:57:12;61.00;;;23.70;;
14203;SDS011;7185;51.854;6.622;2023-02-18T00:59:44;60.80;;;24.50;;
14203;SDS011;7185;51.854;6.622;2023-02-18T01:02:16;67.43;;;25.20;;
14203;SDS011;7185;51.854;6.622;2023-02-18T01:04:47;60.25;;;23.83;;
14203;SDS011;7185;51.854;6.622;2023-02-18T01:07:19;63.25;;;24.73;;
14203;SDS011;7185;51.854;6.622;2023-02-18T01:09:52;60.08;;;24.13;;
14203;SDS011;7185;51.854;6.622;2023-02-18T01:12:24;62.80;;;23.75;;
14203;SDS011;7185;51.854;6.622;2023-02-18T01:14:55;62.58;;;24.65;;
14203;SDS011;7185;51.854;6.622;2023-02-18T01:17:27;57.17;;;23.52;;
14203;SDS011;7185;51.854;6.622;2023-02-18T01:19:58;61.00;;;24.13;;
14203;SDS011;7185;51.854;6.622;2023-02-18T01:22:30;71.70;;;24.08;;
14203;SDS011;7185;51.854;6.622;2023-02-18T01:25:03;65.25;;;23.45;;
14203;SDS011;7185;51.854;6.622;2023-02-18T01:27:36;63.13;;;24.75;;
14203;SDS011;7185;51.854;6.622;2023-02-18T01:30:09;67.20;;;25.20;;
14203;SDS011;7185;51.854;6.622;2023-02-18T01:32:43;60.90;;;23.17;;
14203;SDS011;7185;51.854;6.622;2023-02-18T01:35:16;63.25;;;23.30;;
14203;SDS011;7185;51.854;6.622;2023-02-18T01:37:49;60.90;;;23.42;;
14203;SDS011;7185;51.854;6.622;2023-02-18T01:40:24;62.50;;;24.30;;
14203;SDS011;7185;51.854;6.622;2023-02-18T01:42:57;64.88;;;24.23;;
14203;SDS011;7185;51.854;6.622;2023-02-18T01:48:28;57.03;;;22.55;;
14203;SDS011;7185;51.854;6.622;2023-02-18T01:51:04;58.15;;;24.10;;
14203;SDS011;7185;51.854;6.622;2023-02-18T01:53:41;59.60;;;23.13;;
14203;SDS011;7185;51.854;6.622;2023-02-18T01:56:19;62.65;;;24.55;;
14203;SDS011;7185;51.854;6.622;2023-02-18T01:58:56;67.45;;;26.13;;
14203;SDS011;7185;51.854;6.622;2023-02-18T02:01:31;62.25;;;24.85;;
14203;SDS011;7185;51.854;6.622;2023-02-18T02:04:03;64.68;;;25.45;;
14203;SDS011;7185;51.854;6.622;2023-02-18T02:06:35;57.17;;;25.15;;
14203;SDS011;7185;51.854;6.622;2023-02-18T02:09:08;68.93;;;24.70;;
14203;SDS011;7185;51.854;6.622;2023-02-18T02:14:50;62.72;;;25.45;;
14203;SDS011;7185;51.854;6.622;2023-02-18T02:17:49;60.80;;;25.92;;
14203;SDS011;7185;51.854;6.622;2023-02-18T02:20:36;74.88;;;27.08;;
14203;SDS011;7185;51.854;6.622;2023-02-18T02:23:45;68.57;;;28.48;;
14203;SDS011;7185;51.854;6.622;2023-02-18T02:35:57;74.55;;;28.98;;
14203;SDS011;7185;51.854;6.622;2023-02-18T02:38:33;72.60;;;27.98;;
14203;SDS011;7185;51.854;6.622;2023-02-18T02:41:14;80.43;;;30.15;;
14203;SDS011;7185;51.854;6.622;2023-02-18T02:43:55;76.00;;;29.90;;
14203;SDS011;7185;51.854;6.622;2023-02-18T02:46:37;83.45;;;30.52;;
14203;SDS011;7185;51.854;6.622;2023-02-18T02:49:13;69.65;;;28.17;;
14203;SDS011;7185;51.854;6.622;2023-02-18T02:51:55;75.05;;;28.40;;
14203;SDS011;7185;51.854;6.622;2023-02-18T02:54:31;80.82;;;27.58;;
14203;SDS011;7185;51.854;6.622;2023-02-18T02:57:04;74.72;;;27.60;;
14203;SDS011;7185;51.854;6.622;2023-02-18T02:59:40;75.10;;;28.17;;
14203;SDS011;7185;51.854;6.622;2023-02-18T03:02:17;70.32;;;27.17;;
14203;SDS011;7185;51.854;6.622;2023-02-18T03:05:03;66.78;;;27.08;;
14203;SDS011;7185;51.854;6.622;2023-02-18T03:07:59;68.57;;;26.33;;
14203;SDS011;7185;51.854;6.622;2023-02-18T03:10:41;63.42;;;25.00;;
14203;SDS011;7185;51.854;6.622;2023-02-18T03:13:22;55.95;;;23.60;;
14203;SDS011;7185;51.854;6.622;2023-02-18T03:16:06;57.63;;;22.42;;
14203;SDS011;7185;51.854;6.622;2023-02-18T03:18:44;54.28;;;21.60;;
14203;SDS011;7185;51.854;6.622;2023-02-18T03:21:21;59.45;;;20.48;;
14203;SDS011;7185;51.854;6.622;2023-02-18T03:23:58;51.70;;;21.27;;
14203;SDS011;7185;51.854;6.622;2023-02-18T03:26:37;50.33;;;19.42;;
14203;SDS011;7185;51.854;6.622;2023-02-18T03:29:14;43.67;;;18.40;;
14203;SDS011;7185;51.854;6.622;2023-02-18T03:31:49;45.85;;;17.60;;
14203;SDS011;7185;51.854;6.622;2023-02-18T03:34:27;42.20;;;16.83;;
14203;SDS011;7185;51.854;6.622;2023-02-18T03:37:00;38.45;;;16.30;;
14203;SDS011;7185;51.854;6.622;2023-02-18T03:39:34;34.60;;;14.80;;
14203;SDS011;7185;51.854;6.622;2023-02-18T03:42:06;31.52;;;13.13;;
14203;SDS011;7185;51.854;6.622;2023-02-18T03:44:38;35.88;;;14.32;;
14203;SDS011;7185;51.854;6.622;2023-02-18T03:47:10;30.50;;;12.63;;
14203;SDS011;7185;51.854;6.622;2023-02-18T03:49:42;25.88;;;12.05;;
14203;SDS011;7185;51.854;6.622;2023-02-18T03:52:14;30.85;;;11.95;;
14203;SDS011;7185;51.854;6.622;2023-02-18T03:54:46;29.45;;;11.13;;
14203;SDS011;7185;51.854;6.622;2023-02-18T03:57:18;29.52;;;11.20;;
14203;SDS011;7185;51.854;6.622;2023-02-18T03:59:50;26.27;;;11.02;;
14203;SDS011;7185;51.854;6.622;2023-02-18T04:02:21;23.10;;;9.80;;
14203;SDS011;7185;51.854;6.622;2023-02-18T04:04:53;26.30;;;11.05;;
14203;SDS011;7185;51.854;6.622;2023-02-18T04:07:25;27.25;;;10.55;;
14203;SDS011;7185;51.854;6.622;2023-02-18T04:09:57;22.90;;;9.95;;
14203;SDS011;7185;51.854;6.622;2023-02-18T04:12:29;22.30;;;9.95;;
14203;SDS011;7185;51.854;6.622;2023-02-18T04:15:00;20.85;;;8.82;;
14203;SDS011;7185;51.854;6.622;2023-02-18T04:17:32;24.88;;;10.77;;
14203;SDS011;7185;51.854;6.622;2023-02-18T04:20:05;22.50;;;8.80;;
14203;SDS011;7185;51.854;6.622;2023-02-18T04:22:37;20.45;;;9.65;;
14203;SDS011;7185;51.854;6.622;2023-02-18T04:25:10;24.25;;;9.55;;
14203;SDS011;7185;51.854;6.622;2023-02-18T04:27:42;20.48;;;9.73;;
14203;SDS011;7185;51.854;6.622;2023-02-18T04:30:13;22.35;;;9.00;;
14203;SDS011;7185;51.854;6.622;2023-02-18T04:32:45;18.30;;;8.45;;
14203;SDS011;7185;51.854;6.622;2023-02-18T04:35:17;19.70;;;8.25;;
14203;SDS011;7185;51.854;6.622;2023-02-18T04:37:49;19.50;;;8.23;;
14203;SDS011;7185;51.854;6.622;2023-02-18T04:40:21;20.65;;;8.25;;
14203;SDS011;7185;51.854;6.622;2023-02-18T04:42:54;22.20;;;8.75;;
14203;SDS011;7185;51.854;6.622;2023-02-18T04:45:26;17.35;;;7.88;;
14203;SDS011;7185;51.854;6.622;2023-02-18T04:47:58;18.27;;;8.55;;
14203;SDS011;7185;51.854;6.622;2023-02-18T04:50:29;20.15;;;8.40;;
14203;SDS011;7185;51.854;6.622;2023-02-18T04:53:01;18.08;;;8.40;;
14203;SDS011;7185;51.854;6.622;2023-02-18T04:55:34;18.70;;;7.57;;
14203;SDS011;7185;51.854;6.622;2023-02-18T04:58:06;17.65;;;8.23;;
14203;SDS011;7185;51.854;6.622;2023-02-18T05:00:39;17.13;;;7.35;;
14203;SDS011;7185;51.854;6.622;2023-02-18T05:03:10;18.48;;;7.63;;
14203;SDS011;7185;51.854;6.622;2023-02-18T05:05:42;20.75;;;7.80;;
14203;SDS011;7185;51.854;6.622;2023-02-18T05:08:14;17.92;;;7.35;;
14203;SDS011;7185;51.854;6.622;2023-02-18T05:10:47;16.17;;;6.50;;
14203;SDS011;7185;51.854;6.622;2023-02-18T05:13:19;16.08;;;6.78;;
14203;SDS011;7185;51.854;6.622;2023-02-18T05:15:51;16.98;;;6.32;;
14203;SDS011;7185;51.854;6.622;2023-02-18T05:18:23;15.40;;;6.95;;
14203;SDS011;7185;51.854;6.622;2023-02-18T05:20:54;13.23;;;5.63;;
14203;SDS011;7185;51.854;6.622;2023-02-18T05:23:26;17.23;;;5.80;;
14203;SDS011;7185;51.854;6.622;2023-02-18T05:25:59;14.10;;;5.72;;
14203;SDS011;7185;51.854;6.622;2023-02-18T05:28:31;14.07;;;5.13;;
14203;SDS011;7185;51.854;6.622;2023-02-18T05:31:02;13.55;;;5.68;;
14203;SDS011;7185;51.854;6.622;2023-02-18T05:33:34;13.77;;;5.13;;
14203;SDS011;7185;51.854;6.622;2023-02-18T05:36:06;11.52;;;5.20;;
14203;SDS011;7185;51.854;6.622;2023-02-18T05:38:38;10.77;;;4.65;;
14203;SDS011;7185;51.854;6.622;2023-02-18T05:41:11;9.45;;;4.13;;
14203;SDS011;7185;51.854;6.622;2023-02-18T05:43:42;11.80;;;4.38;;
14203;SDS011;7185;51.854;6.622;2023-02-18T05:46:31;10.15;;;3.88;;
14203;SDS011;7185;51.854;6.622;2023-02-18T05:49:03;11.20;;;3.75;;
14203;SDS011;7185;51.854;6.622;2023-02-18T05:51:35;8.60;;;4.20;;
14203;SDS011;7185;51.854;6.622;2023-02-18T05:54:06;8.80;;;3.90;;
14203;SDS011;7185;51.854;6.622;2023-02-18T05:56:39;11.93;;;4.38;;
14203;SDS011;7185;51.854;6.622;2023-02-18T05:59:11;8.98;;;3.85;;
14203;SDS011;7185;51.854;6.622;2023-02-18T06:01:43;7.90;;;3.47;;
14203;SDS011;7185;51.854;6.622;2023-02-18T06:04:14;8.02;;;3.08;;
14203;SDS011;7185;51.854;6.622;2023-02-18T06:06:46;8.25;;;3.30;;
14203;SDS011;7185;51.854;6.622;2023-02-18T06:09:18;8.57;;;3.22;;
14203;SDS011;7185;51.854;6.622;2023-02-18T06:11:51;8.68;;;3.60;;
14203;SDS011;7185;51.854;6.622;2023-02-18T06:14:22;6.72;;;3.00;;
14203;SDS011;7185;51.854;6.622;2023-02-18T06:16:54;10.23;;;3.30;;
14203;SDS011;7185;51.854;6.622;2023-02-18T06:19:25;6.60;;;2.78;;
14203;SDS011;7185;51.854;6.622;2023-02-18T06:21:57;6.63;;;2.90;;
14203;SDS011;7185;51.854;6.622;2023-02-18T06:24:29;7.38;;;2.85;;
14203;SDS011;7185;51.854;6.622;2023-02-18T06:27:02;6.07;;;3.05;;
14203;SDS011;7185;51.854;6.622;2023-02-18T06:29:33;6.03;;;2.83;;
14203;SDS011;7185;51.854;6.622;2023-02-18T06:32:05;5.72;;;2.55;;
14203;SDS011;7185;51.854;6.622;2023-02-18T06:34:37;4.70;;;2.22;;
14203;SDS011;7185;51.854;6.622;2023-02-18T06:37:09;6.30;;;2.70;;
14203;SDS011;7185;51.854;6.622;2023-02-18T06:39:40;6.82;;;3.00;;
14203;SDS011;7185;51.854;6.622;2023-02-18T06:42:13;8.13;;;2.92;;
14203;SDS011;7185;51.854;6.622;2023-02-18T06:44:45;3.95;;;2.20;;
14203;SDS011;7185;51.854;6.622;2023-02-18T06:47:16;4.60;;;2.50;;
14203;SDS011;7185;51.854;6.622;2023-02-18T06:49:48;3.92;;;2.42;;
14203;SDS011;7185;51.854;6.622;2023-02-18T06:52:20;4.47;;;2.20;;
14203;SDS011;7185;51.854;6.622;2023-02-18T06:54:51;5.32;;;2.70;;
14203;SDS011;7185;51.854;6.622;2023-02-18T06:57:24;5.25;;;2.45;;
14203;SDS011;7185;51.854;6.622;2023-02-18T06:59:56;5.28;;;2.55;;
14203;SDS011;7185;51.854;6.622;2023-02-18T07:02:27;6.20;;;2.92;;
14203;SDS011;7185;51.854;6.622;2023-02-18T07:04:59;7.97;;;3.03;;
14203;SDS011;7185;51.854;6.622;2023-02-18T07:07:31;6.70;;;2.78;;
14203;SDS011;7185;51.854;6.622;2023-02-18T07:10:03;6.10;;;2.85;;
14203;SDS011;7185;51.854;6.622;2023-02-18T07:12:36;5.47;;;2.72;;
14203;SDS011;7185;51.854;6.622;2023-02-18T07:15:08;6.38;;;3.03;;
14203;SDS011;7185;51.854;6.622;2023-02-18T07:17:40;11.93;;;4.40;;
14203;SDS011;7185;51.854;6.622;2023-02-18T07:20:12;7.47;;;3.63;;
14203;SDS011;7185;51.854;6.622;2023-02-18T07:22:43;6.53;;;3.00;;
14203;SDS011;7185;51.854;6.622;2023-02-18T07:25:15;6.22;;;2.88;;
14203;SDS011;7185;51.854;6.622;2023-02-18T07:27:48;7.15;;;2.95;;
14203;SDS011;7185;51.854;6.622;2023-02-18T07:30:20;7.63;;;3.35;;
14203;SDS011;7185;51.854;6.622;2023-02-18T07:32:52;7.95;;;3.45;;
14203;SDS011;7185;51.854;6.622;2023-02-18T07:35:23;7.85;;;3.30;;
14203;SDS011;7185;51.854;6.622;2023-02-18T07:37:55;6.18;;;3.17;;
14203;SDS011;7185;51.854;6.622;2023-02-18T07:40:27;9.05;;;3.70;;
14203;SDS011;7185;51.854;6.622;2023-02-18T07:43:00;7.05;;;3.05;;
14203;SDS011;7185;51.854;6.622;2023-02-18T07:45:31;7.28;;;3.38;;
14203;SDS011;7185;51.854;6.622;2023-02-18T07:48:03;6.05;;;3.25;;
14203;SDS011;7185;51.854;6.622;2023-02-18T07:50:37;6.43;;;3.17;;
14203;SDS011;7185;51.854;6.622;2023-02-18T07:53:09;6.93;;;3.40;;
14203;SDS011;7185;51.854;6.622;2023-02-18T07:55:42;6.38;;;2.75;;
14203;SDS011;7185;51.854;6.622;2023-02-18T07:58:21;6.60;;;3.80;;
14203;SDS011;7185;51.854;6.622;2023-02-18T08:00:54;9.60;;;3.67;;
14203;SDS011;7185;51.854;6.622;2023-02-18T08:03:27;7.43;;;3.33;;
14203;SDS011;7185;51.854;6.622;2023-02-18T08:06:01;6.85;;;3.53;;
14203;SDS011;7185;51.854;6.622;2023-02-18T08:08:33;8.25;;;3.17;;
14203;SDS011;7185;51.854;6.622;2023-02-18T08:11:05;6.78;;;3.15;;
14203;SDS011;7185;51.854;6.622;2023-02-18T08:13:38;6.60;;;3.00;;
14203;SDS011;7185;51.854;6.622;2023-02-18T08:16:10;6.57;;;3.08;;
14203;SDS011;7185;51.854;6.622;2023-02-18T08:18:41;7.88;;;3.53;;
14203;SDS011;7185;51.854;6.622;2023-02-18T08:21:13;7.72;;;3.60;;
14203;SDS011;7185;51.854;6.622;2023-02-18T08:23:45;7.35;;;3.20;;
14203;SDS011;7185;51.854;6.622;2023-02-18T08:26:18;7.55;;;3.47;;
14203;SDS011;7185;51.854;6.622;2023-02-18T08:28:51;10.70;;;3.90;;
14203;SDS011;7185;51.854;6.622;2023-02-18T08:31:24;8.75;;;4.55;;
14203;SDS011;7185;51.854;6.622;2023-02-18T08:33:57;9.13;;;4.55;;
14203;SDS011;7185;51.854;6.622;2023-02-18T08:36:29;9.52;;;4.57;;
14203;SDS011;7185;51.854;6.622;2023-02-18T08:39:01;10.88;;;4.95;;
14203;SDS011;7185;51.854;6.622;2023-02-18T08:41:33;11.50;;;4.93;;
14203;SDS011;7185;51.854;6.622;2023-02-18T08:44:06;10.80;;;4.82;;
14203;SDS011;7185;51.854;6.622;2023-02-18T08:46:38;9.70;;;4.78;;
14203;SDS011;7185;51.854;6.622;2023-02-18T08:49:09;11.70;;;5.55;;
14203;SDS011;7185;51.854;6.622;2023-02-18T08:51:41;11.48;;;5.60;;
14203;SDS011;7185;51.854;6.622;2023-02-18T08:54:13;12.45;;;6.20;;
14203;SDS011;7185;51.854;6.622;2023-02-18T08:56:44;12.82;;;5.57;;
14203;SDS011;7185;51.854;6.622;2023-02-18T08:59:17;14.02;;;5.68;;
14203;SDS011;7185;51.854;6.622;2023-02-18T09:01:49;12.18;;;5.93;;
14203;SDS011;7185;51.854;6.622;2023-02-18T09:04:21;16.50;;;6.57;;
14203;SDS011;7185;51.854;6.622;2023-02-18T09:06:53;16.75;;;6.88;;
14203;SDS011;7185;51.854;6.622;2023-02-18T09:09:26;17.88;;;7.13;;
14203;SDS011;7185;51.854;6.622;2023-02-18T09:11:58;16.92;;;7.82;;
14203;SDS011;7185;51.854;6.622;2023-02-18T09:14:31;21.63;;;8.13;;
14203;SDS011;7185;51.854;6.622;2023-02-18T09:17:03;16.05;;;7.35;;
14203;SDS011;7185;51.854;6.622;2023-02-18T09:19:35;19.17;;;7.30;;
14203;SDS011;7185;51.854;6.622;2023-02-18T09:22:06;19.92;;;8.65;;
14203;SDS011;7185;51.854;6.622;2023-02-18T09:24:38;19.17;;;8.10;;
14203;SDS011;7185;51.854;6.622;2023-02-18T09:27:11;21.15;;;8.43;;
14203;SDS011;7185;51.854;6.622;2023-02-18T09:29:44;17.88;;;8.18;;
14203;SDS011;7185;51.854;6.622;2023-02-18T09:32:16;23.05;;;9.57;;
14203;SDS011;7185;51.854;6.622;2023-02-18T09:34:48;20.38;;;9.35;;
14203;SDS011;7185;51.854;6.622;2023-02-18T09:37:20;17.95;;;8.85;;
14203;SDS011;7185;51.854;6.622;2023-02-18T09:39:52;23.23;;;9.55;;
14203;SDS011;7185;51.854;6.622;2023-02-18T09:42:26;23.00;;;9.70;;
14203;SDS011;7185;51.854;6.622;2023-02-18T09:45:03;24.02;;;9.98;;
14203;SDS011;7185;51.854;6.622;2023-02-18T09:47:38;23.07;;;9.67;;
14203;SDS011;7185;51.854;6.622;2023-02-18T09:50:12;21.50;;;9.63;;
14203;SDS011;7185;51.854;6.622;2023-02-18T09:52:50;24.80;;;9.18;;
14203;SDS011;7185;51.854;6.622;2023-02-18T09:55:24;18.55;;;9.50;;
14203;SDS011;7185;51.854;6.622;2023-02-18T09:57:59;21.80;;;9.20;;
14203;SDS011;7185;51.854;6.622;2023-02-18T10:00:35;23.63;;;10.13;;
14203;SDS011;7185;51.854;6.622;2023-02-18T10:03:10;18.90;;;8.88;;
14203;SDS011;7185;51.854;6.622;2023-02-18T10:05:54;17.73;;;9.10;;
14203;SDS011;7185;51.854;6.622;2023-02-18T10:08:30;19.38;;;8.68;;
14203;SDS011;7185;51.854;6.622;2023-02-18T10:11:09;24.67;;;10.02;;
14203;SDS011;7185;51.854;6.622;2023-02-18T10:13:45;19.42;;;8.88;;
14203;SDS011;7185;51.854;6.622;2023-02-18T10:16:19;19.30;;;8.77;;
14203;SDS011;7185;51.854;6.622;2023-02-18T10:18:54;23.98;;;9.73;;
14203;SDS011;7185;51.854;6.622;2023-02-18T10:21:30;19.50;;;8.82;;
14203;SDS011;7185;51.854;6.622;2023-02-18T10:24:05;20.80;;;9.18;;
14203;SDS011;7185;51.854;6.622;2023-02-18T10:26:45;20.33;;;9.23;;
14203;SDS011;7185;51.854;6.622;2023-02-18T10:29:19;20.55;;;10.10;;
14203;SDS011;7185;51.854;6.622;2023-02-18T10:31:53;28.83;;;10.77;;
14203;SDS011;7185;51.854;6.622;2023-02-18T10:34:35;25.50;;;10.82;;
14203;SDS011;7185;51.854;6.622;2023-02-18T10:37:15;31.13;;;11.43;;
14203;SDS011;7185;51.854;6.622;2023-02-18T10:40:08;23.88;;;11.07;;
14203;SDS011;7185;51.854;6.622;2023-02-18T10:42:49;30.30;;;11.75;;
14203;SDS011;7185;51.854;6.622;2023-02-18T10:45:33;30.13;;;11.45;;
14203;SDS011;7185;51.854;6.622;2023-02-18T10:48:31;24.88;;;11.30;;
14203;SDS011;7185;51.854;6.622;2023-02-18T10:51:27;29.08;;;10.88;;
14203;SDS011;7185;51.854;6.622;2023-02-18T10:54:02;26.65;;;10.60;;
14203;SDS011;7185;51.854;6.622;2023-02-18T10:56:36;26.40;;;11.43;;
14203;SDS011;7185;51.854;6.622;2023-02-18T10:59:10;28.40;;;11.15;;
14203;SDS011;7185;51.854;6.622;2023-02-18T11:01:44;23.52;;;10.43;;
14203;SDS011;7185;51.854;6.622;2023-02-18T11:04:18;23.55;;;10.73;;
14203;SDS011;7185;51.854;6.622;2023-02-18T11:06:51;28.95;;;10.77;;
14203;SDS011;7185;51.854;6.622;2023-02-18T11:09:29;21.48;;;9.45;;
14203;SDS011;7185;51.854;6.622;2023-02-18T11:12:12;26.98;;;9.43;;
14203;SDS011;7185;51.854;6.622;2023-02-18T11:14:48;21.13;;;9.20;;
14203;SDS011;7185;51.854;6.622;2023-02-18T11:17:24;21.35;;;9.45;;
14203;SDS011;7185;51.854;6.622;2023-02-18T11:20:00;20.55;;;8.90;;
14203;SDS011;7185;51.854;6.622;2023-02-18T11:22:35;20.88;;;8.40;;
14203;SDS011;7185;51.854;6.622;2023-02-18T11:25:17;25.95;;;8.13;;
14203;SDS011;7185;51.854;6.622;2023-02-18T11:27:51;20.60;;;8.15;;
14203;SDS011;7185;51.854;6.622;2023-02-18T11:30:26;17.67;;;8.50;;
14203;SDS011;7185;51.854;6.622;2023-02-18T11:33:05;22.42;;;8.23;;
14203;SDS011;7185;51.854;6.622;2023-02-18T11:35:40;22.20;;;8.45;;
14203;SDS011;7185;51.854;6.622;2023-02-18T11:38:21;18.55;;;7.60;;
14203;SDS011;7185;51.854;6.622;2023-02-18T11:40:56;19.77;;;7.75;;
14203;SDS011;7185;51.854;6.622;2023-02-18T11:43:33;12.00;;;6.45;;
14203;SDS011;7185;51.854;6.622;2023-02-18T11:46:09;16.63;;;7.50;;
14203;SDS011;7185;51.854;6.622;2023-02-18T11:48:42;17.15;;;7.28;;
14203;SDS011;7185;51.854;6.622;2023-02-18T11:51:16;17.02;;;7.72;;
14203;SDS011;7185;51.854;6.622;2023-02-18T11:53:54;17.48;;;7.13;;
14203;SDS011;7185;51.854;6.622;2023-02-18T11:56:31;16.48;;;7.03;;
14203;SDS011;7185;51.854;6.622;2023-02-18T11:59:04;15.07;;;6.28;;
14203;SDS011;7185;51.854;6.622;2023-02-18T12:01:38;15.80;;;7.15;;
14203;SDS011;7185;51.854;6.622;2023-02-18T12:04:15;14.98;;;6.38;;
14203;SDS011;7185;51.854;6.622;2023-02-18T12:06:51;21.48;;;6.45;;
14203;SDS011;7185;51.854;6.622;2023-02-18T12:09:34;14.85;;;6.55;;
14203;SDS011;7185;51.854;6.622;2023-02-18T12:12:10;15.40;;;6.28;;
14203;SDS011;7185;51.854;6.622;2023-02-18T12:14:46;18.38;;;6.53;;
14203;SDS011;7185;51.854;6.622;2023-02-18T12:20:26;13.13;;;7.35;;
14203;SDS011;7185;51.854;6.622;2023-02-18T12:23:19;19.42;;;7.57;;
14203;SDS011;7185;51.854;6.622;2023-02-18T12:25:58;17.10;;;6.97;;
14203;SDS011;7185;51.854;6.622;2023-02-18T12:28:45;13.27;;;7.57;;
14203;SDS011;7185;51.854;6.622;2023-02-18T12:31:33;18.55;;;8.30;;
14203;SDS011;7185;51.854;6.622;2023-02-18T12:34:18;20.05;;;10.65;;
14203;SDS011;7185;51.854;6.622;2023-02-18T12:37:02;15.55;;;7.50;;
14203;SDS011;7185;51.854;6.622;2023-02-18T12:39:48;14.23;;;7.30;;
14203;SDS011;7185;51.854;6.622;2023-02-18T12:42:37;15.65;;;8.15;;
14203;SDS011;7185;51.854;6.622;2023-02-18T12:45:25;20.75;;;9.73;;
14203;SDS011;7185;51.854;6.622;2023-02-18T12:48:17;17.13;;;8.40;;
14203;SDS011;7185;51.854;6.622;2023-02-18T12:53:58;20.25;;;7.97;;
14203;SDS011;7185;51.854;6.622;2023-02-18T12:56:44;15.43;;;7.10;;
14203;SDS011;7185;51.854;6.622;2023-02-18T12:59:39;14.38;;;6.28;;
14203;SDS011;7185;51.854;6.622;2023-02-18T13:02:45;14.95;;;7.18;;
14203;SDS011;7185;51.854;6.622;2023-02-18T13:05:36;17.00;;;6.18;;
14203;SDS011;7185;51.854;6.622;2023-02-18T13:08:18;14.98;;;5.88;;
14203;SDS011;7185;51.854;6.622;2023-02-18T13:11:03;17.10;;;6.35;;
14203;SDS011;7185;51.854;6.622;2023-02-18T13:13:48;12.65;;;6.00;;
14203;SDS011;7185;51.854;6.622;2023-02-18T13:16:25;14.30;;;6.43;;
14203;SDS011;7185;51.854;6.622;2023-02-18T13:19:00;15.07;;;6.28;;
14203;SDS011;7185;51.854;6.622;2023-02-18T13:21:38;16.13;;;6.50;;
14203;SDS011;7185;51.854;6.622;2023-02-18T13:24:12;16.63;;;5.97;;
14203;SDS011;7185;51.854;6.622;2023-02-18T13:29:25;16.42;;;6.57;;
14203;SDS011;7185;51.854;6.622;2023-02-18T13:32:05;14.05;;;6.47;;
14203;SDS011;7185;51.854;6.622;2023-02-18T13:34:44;18.05;;;6.55;;
14203;SDS011;7185;51.854;6.622;2023-02-18T13:37:21;17.17;;;5.97;;
14203;SDS011;7185;51.854;6.622;2023-02-18T13:40:01;15.70;;;6.13;;
14203;SDS011;7185;51.854;6.622;2023-02-18T13:42:35;13.50;;;5.30;;
14203;SDS011;7185;51.854;6.622;2023-02-18T13:48:02;21.75;;;5.90;;
14203;SDS011;7185;51.854;6.622;2023-02-18T13:50:53;17.45;;;7.00;;
14203;SDS011;7185;51.854;6.622;2023-02-18T13:53:31;21.48;;;8.32;;
14203;SDS011;7185;51.854;6.622;2023-02-18T13:56:06;19.15;;;7.03;;
14203;SDS011;7185;51.854;6.622;2023-02-18T13:58:41;14.90;;;5.32;;
14203;SDS011;7185;51.854;6.622;2023-02-18T14:01:20;16.67;;;5.82;;
14203;SDS011;7185;51.854;6.622;2023-02-18T14:03:58;12.63;;;5.15;;
14203;SDS011;7185;51.854;6.622;2023-02-18T14:06:31;14.07;;;5.38;;
14203;SDS011;7185;51.854;6.622;2023-02-18T14:12:16;13.35;;;4.28;;
14203;SDS011;7185;51.854;6.622;2023-02-18T14:14:55;11.65;;;4.40;;
14203;SDS011;7185;51.854;6.622;2023-02-18T14:17:31;21.95;;;5.05;;
14203;SDS011;7185;51.854;6.622;2023-02-18T14:22:58;13.05;;;4.38;;
14203;SDS011;7185;51.854;6.622;2023-02-18T14:25:34;12.38;;;4.93;;
14203;SDS011;7185;51.854;6.622;2023-02-18T14:31:24;15.65;;;4.50;;
14203;SDS011;7185;51.854;6.622;2023-02-18T14:34:07;11.55;;;4.78;;
14203;SDS011;7185;51.854;6.622;2023-02-18T14:36:51;10.75;;;4.50;;
14203;SDS011;7185;51.854;6.622;2023-02-18T14:39:35;11.07;;;4.13;;
14203;SDS011;7185;51.854;6.622;2023-02-18T14:42:16;12.15;;;4.32;;
14203;SDS011;7185;51.854;6.622;2023-02-18T14:45:06;13.27;;;4.65;;
14203;SDS011;7185;51.854;6.622;2023-02-18T14:47:54;12.98;;;4.22;;
14203;SDS011;7185;51.854;6.622;2023-02-18T14:50:52;15.15;;;4.53;;
14203;SDS011;7185;51.854;6.622;2023-02-18T14:53:25;11.55;;;4.28;;
14203;SDS011;7185;51.854;6.622;2023-02-18T14:56:00;13.20;;;5.18;;
14203;SDS011;7185;51.854;6.622;2023-02-18T15:01:13;15.02;;;4.40;;
14203;SDS011;7185;51.854;6.622;2023-02-18T15:03:49;9.18;;;3.83;;
14203;SDS011;7185;51.854;6.622;2023-02-18T15:06:27;10.98;;;3.95;;
14203;SDS011;7185;51.854;6.622;2023-02-18T15:09:01;12.85;;;4.70;;
14203;SDS011;7185;51.854;6.622;2023-02-18T15:11:43;15.00;;;4.50;;
14203;SDS011;7185;51.854;6.622;2023-02-18T15:14:19;14.48;;;5.28;;
14203;SDS011;7185;51.854;6.622;2023-02-18T15:16:53;15.82;;;5.63;;
14203;SDS011;7185;51.854;6.622;2023-02-18T15:19:25;9.13;;;4.10;;
14203;SDS011;7185;51.854;6.622;2023-02-18T15:22:01;10.80;;;4.00;;
14203;SDS011;7185;51.854;6.622;2023-02-18T15:24:33;14.70;;;4.82;;
14203;SDS011;7185;51.854;6.622;2023-02-18T15:27:10;9.98;;;4.20;;
14203;SDS011;7185;51.854;6.622;2023-02-18T15:29:47;13.00;;;4.53;;
14203;SDS011;7185;51.854;6.622;2023-02-18T15:32:20;8.57;;;4.43;;
14203;SDS011;7185;51.854;6.622;2023-02-18T15:34:54;8.98;;;4.13;;
14203;SDS011;7185;51.854;6.622;2023-02-18T15:37:29;14.63;;;4.65;;
14203;SDS011;7185;51.854;6.622;2023-02-18T15:40:01;16.73;;;4.53;;
14203;SDS011;7185;51.854;6.622;2023-02-18T15:42:35;14.48;;;4.40;;
14203;SDS011;7185;51.854;6.622;2023-02-18T15:45:13;10.18;;;4.45;;
14203;SDS011;7185;51.854;6.622;2023-02-18T15:47:48;13.88;;;4.57;;
14203;SDS011;7185;51.854;6.622;2023-02-18T15:50:22;10.82;;;4.78;;
14203;SDS011;7185;51.854;6.622;2023-02-18T15:52:59;8.68;;;4.18;;
14203;SDS011;7185;51.854;6.622;2023-02-18T15:55:36;14.13;;;5.40;;
14203;SDS011;7185;51.854;6.622;2023-02-18T15:58:11;11.95;;;4.13;;
14203;SDS011;7185;51.854;6.622;2023-02-18T16:00:47;12.32;;;5.22;;
14203;SDS011;7185;51.854;6.622;2023-02-18T16:03:21;11.52;;;4.43;;
14203;SDS011;7185;51.854;6.622;2023-02-18T16:06:07;11.48;;;4.00;;
14203;SDS011;7185;51.854;6.622;2023-02-18T16:08:53;12.68;;;4.13;;
14203;SDS011;7185;51.854;6.622;2023-02-18T16:11:26;8.38;;;3.67;;
14203;SDS011;7185;51.854;6.622;2023-02-18T16:14:02;8.07;;;3.90;;